Time;durP1;ratioP1;P1;durP2;ratioP2;P2;SDS_P1;SDS_P2;PMS_P1;PMS_P2;Temp;Humidity;BMP_temperature;BMP_pressure;BME280_temperature;BME280_humidity;BME280_pressure;Samples;Min_cycle;Max_cycle;Signal;HPM_P1;HPM_P2
2022/10/31 04:42:32;;;;;;;25.75;13.07;;;;;;;8.93;100.00;101925.94;6230791;22;20528;-96
2022/10/31 05:03:14;;;;;;;22.98;12.93;;;;;;;9.01;100.00;101919.47;6211262;22;20479;-89
2022/10/31 05:05:41;;;;;;;26.53;12.80;;;;;;;8.94;100.00;101912.34;6211711;23;20011;-89
2022/10/31 05:08:06;;;;;;;26.75;12.05;;;;;;;8.96;100.00;101916.63;6213113;23;20008;-89
2022/10/31 05:10:31;;;;;;;26.83;13.43;;;;;;;8.90;100.00;101911.16;6212676;23;20539;-88
2022/10/31 05:12:59;;;;;;;27.07;13.57;;;;;;;8.89;100.00;101909.53;6184865;23;20095;-88
2022/10/31 05:15:26;;;;;;;28.75;13.10;;;;;;;8.90;100.00;101907.66;6212540;23;20005;-89
2022/10/31 05:17:53;;;;;;;26.73;13.52;;;;;;;8.90;100.00;101904.97;6212292;23;20013;-89
2022/10/31 05:20:20;;;;;;;26.48;13.55;;;;;;;8.84;100.00;101897.84;6210870;23;20032;-88
2022/10/31 05:22:50;;;;;;;26.98;13.15;;;;;;;8.81;100.00;101909.78;6211579;23;20012;-88
2022/10/31 05:53:42;;;;;;;29.73;13.85;;;;;;;8.60;100.00;101863.72;6235521;22;20369;-91
2022/10/31 05:56:08;;;;;;;29.33;14.70;;;;;;;8.75;100.00;101876.75;6186615;23;20027;-91
2022/10/31 06:11:23;;;;;;;25.08;12.77;;;;;;;8.49;100.00;101856.41;6151121;23;20401;-85
2022/10/31 06:13:48;;;;;;;26.33;13.37;;;;;;;8.42;100.00;101847.59;6151750;23;20031;-85
2022/10/31 06:16:16;;;;;;;25.53;13.50;;;;;;;8.38;100.00;101846.41;6151705;23;20005;-85
2022/10/31 06:18:42;;;;;;;23.50;12.52;;;;;;;8.42;100.00;101871.63;6150524;23;20063;-85
2022/10/31 06:21:07;;;;;;;25.07;12.60;;;;;;;8.42;100.00;101866.28;6152369;23;20084;-84
2022/10/31 06:23:32;;;;;;;22.90;12.93;;;;;;;8.48;100.00;101885.00;6152069;23;20041;-85
2022/10/31 06:25:58;;;;;;;26.67;12.47;;;;;;;8.47;100.00;101874.47;6152520;23;20009;-85
2022/10/31 06:28:23;;;;;;;24.20;13.80;;;;;;;8.51;100.00;101874.88;6152210;23;20005;-84
2022/10/31 06:30:48;;;;;;;27.93;13.10;;;;;;;8.45;100.00;101876.53;6151591;23;20005;-87
2022/10/31 06:33:14;;;;;;;25.47;12.77;;;;;;;8.46;100.00;101883.53;6151169;23;20000;-85
2022/10/31 06:35:45;;;;;;;27.03;12.47;;;;;;;8.46;100.00;101878.19;6150399;23;20021;-86
2022/10/31 06:38:10;;;;;;;30.13;13.52;;;;;;;8.52;100.00;101880.03;6151782;23;20017;-86
2022/10/31 06:40:36;;;;;;;27.63;12.97;;;;;;;8.54;100.00;101885.97;6151237;23;20085;-86
2022/10/31 06:43:01;;;;;;;30.90;14.33;;;;;;;8.59;100.00;101891.47;6150879;23;20012;-86
2022/10/31 06:45:27;;;;;;;31.27;13.90;;;;;;;8.65;100.00;101892.47;6151448;23;20001;-85
2022/10/31 06:47:54;;;;;;;32.63;14.10;;;;;;;8.69;100.00;101892.84;6150154;23;20095;-86
2022/10/31 06:50:22;;;;;;;33.53;14.30;;;;;;;8.71;100.00;101888.91;6150710;23;20062;-87
2022/10/31 06:52:54;;;;;;;24.73;13.60;;;;;;;8.71;100.00;101880.88;6151748;23;20002;-86
2022/10/31 06:55:22;;;;;;;27.63;12.98;;;;;;;8.75;100.00;101881.28;6151664;23;20016;-86
2022/10/31 06:57:55;;;;;;;23.08;12.63;;;;;;;8.79;100.00;101885.13;6151946;23;20010;-86
2022/10/31 07:00:20;;;;;;;32.97;13.55;;;;;;;8.86;100.00;101880.56;6150302;23;20001;-86
2022/10/31 07:03:03;;;;;;;28.40;14.87;;;;;;;8.92;100.00;101881.53;6150676;23;20084;-86
2022/10/31 07:05:29;;;;;;;28.80;14.60;;;;;;;8.99;100.00;101876.09;6152160;23;20014;-86
2022/10/31 07:07:56;;;;;;;28.80;14.77;;;;;;;9.03;100.00;101882.66;6150192;23;20372;-87
2022/10/31 07:10:27;;;;;;;28.40;15.30;;;;;;;9.11;100.00;101881.53;6150628;23;20219;-86
2022/10/31 07:12:56;;;;;;;28.45;14.65;;;;;;;9.12;100.00;101875.16;6151265;23;20067;-85
2022/10/31 07:15:26;;;;;;;27.27;13.70;;;;;;;9.15;100.00;101886.22;6152065;23;20001;-86
2022/10/31 07:17:51;;;;;;;30.83;14.10;;;;;;;9.19;100.00;101876.72;6151496;23;20324;-85
2022/10/31 07:20:17;;;;;;;28.42;15.10;;;;;;;9.27;100.00;101882.81;6150993;23;20005;-85
2022/10/31 07:22:42;;;;;;;24.57;14.17;;;;;;;9.32;100.00;101883.78;6152240;23;20009;-86
2022/10/31 07:25:09;;;;;;;27.70;15.10;;;;;;;9.32;100.00;101886.44;6150948;23;20013;-87
2022/10/31 07:27:39;;;;;;;25.08;14.73;;;;;;;9.39;100.00;101887.22;6151127;23;20013;-86
2022/10/31 07:30:05;;;;;;;22.55;14.07;;;;;;;9.41;100.00;101886.97;6150314;23;20032;-86
2022/10/31 07:32:41;;;;;;;30.70;14.70;;;;;;;9.37;100.00;101883.94;6150257;23;20013;-86
2022/10/31 07:35:12;;;;;;;24.90;14.35;;;;;;;9.48;100.00;101900.25;6153029;23;20088;-86
2022/10/31 07:37:38;;;;;;;30.38;15.55;;;;;;;9.50;100.00;101896.31;6153560;23;20012;-85
2022/10/31 07:40:05;;;;;;;28.77;16.45;;;;;;;9.59;100.00;101898.69;6150569;23;20052;-85
2022/10/31 07:42:37;;;;;;;26.88;16.77;;;;;;;9.60;100.00;101889.63;6152265;23;20452;-85
2022/10/31 07:45:04;;;;;;;26.30;15.30;;;;;;;9.70;100.00;101897.94;6150793;23;20341;-85
2022/10/31 07:47:37;;;;;;;26.67;14.83;;;;;;;9.73;100.00;101902.84;6153310;23;20245;-85
2022/10/31 07:50:03;;;;;;;32.47;16.42;;;;;;;9.76;100.00;101905.06;6153056;23;20013;-85
2022/10/31 07:52:28;;;;;;;31.08;16.55;;;;;;;9.80;100.00;101898.22;6153151;23;20307;-85
2022/10/31 07:54:54;;;;;;;35.13;18.17;;;;;;;9.85;100.00;101897.53;6152758;23;20052;-86
2022/10/31 07:57:19;;;;;;;34.57;18.63;;;;;;;9.85;100.00;101901.06;6153377;23;20009;-88
2022/10/31 07:59:44;;;;;;;37.87;19.83;;;;;;;9.93;100.00;101904.44;6152291;23;20477;-86
2022/10/31 08:02:09;;;;;;;36.50;19.47;;;;;;;9.99;100.00;101898.19;6153582;23;20010;-85
2022/10/31 08:04:35;;;;;;;40.20;20.60;;;;;;;10.04;100.00;101901.00;6152338;23;20009;-85
2022/10/31 08:07:01;;;;;;;44.07;20.53;;;;;;;10.11;100.00;101904.38;6151983;23;20245;-85
2022/10/31 08:09:26;;;;;;;42.27;20.27;;;;;;;10.19;100.00;101916.63;6152100;23;20001;-84
2022/10/31 08:11:53;;;;;;;44.23;21.53;;;;;;;10.26;100.00;101912.00;6151203;23;20395;-86
2022/10/31 08:14:18;;;;;;;42.93;21.27;;;;;;;10.33;100.00;101901.19;6153087;23;20089;-86
2022/10/31 08:16:44;;;;;;;46.43;22.03;;;;;;;10.47;100.00;101911.72;6153035;23;20292;-85
2022/10/31 08:19:09;;;;;;;45.90;24.40;;;;;;;10.52;100.00;101904.63;6154133;23;20055;-86
2022/10/31 08:21:34;;;;;;;48.73;24.07;;;;;;;10.69;100.00;101910.13;6156126;23;20005;-87
2022/10/31 08:23:59;;;;;;;48.50;25.63;;;;;;;10.80;100.00;101896.94;6153963;23;20029;-87
2022/10/31 08:26:25;;;;;;;45.97;23.20;;;;;;;10.93;100.00;101894.06;6153480;23;20076;-86
2022/10/31 08:28:50;;;;;;;57.50;25.87;;;;;;;11.06;100.00;101885.75;6153556;23;20013;-86
2022/10/31 08:31:15;;;;;;;47.43;25.13;;;;;;;11.27;100.00;101893.41;6152860;23;20002;-86
2022/10/31 08:33:40;;;;;;;52.83;27.00;;;;;;;11.54;100.00;101909.00;6153319;23;20028;-86
2022/10/31 08:36:06;;;;;;;64.53;32.60;;;;;;;11.78;100.00;101915.13;6151527;23;20056;-87
2022/10/31 08:38:31;;;;;;;63.87;32.27;;;;;;;12.00;100.00;101906.41;6153294;23;20311;-86
2022/10/31 08:40:56;;;;;;;63.03;30.27;;;;;;;12.18;100.00;101910.75;6152217;23;20029;-86
2022/10/31 08:43:22;;;;;;;52.30;28.40;;;;;;;12.24;100.00;101896.38;6152786;23;20448;-86
2022/10/31 08:45:49;;;;;;;53.47;27.53;;;;;;;12.28;100.00;101884.06;6152477;23;20013;-86
2022/10/31 08:48:16;;;;;;;41.85;25.45;;;;;;;12.21;100.00;101862.75;6152955;23;20012;-86
2022/10/31 08:50:43;;;;;;;50.65;26.83;;;;;;;12.20;100.00;101838.78;6151717;23;20005;-87
2022/10/31 08:53:16;;;;;;;54.38;26.33;;;;;;;12.17;100.00;101852.69;6153338;23;19997;-86
2022/10/31 08:55:45;;;;;;;53.00;27.83;;;;;;;12.10;100.00;101848.31;6152999;23;20036;-87
2022/10/31 08:58:13;;;;;;;50.00;25.80;;;;;;;12.05;100.00;101839.38;6152884;23;20012;-86
2022/10/31 09:00:39;;;;;;;50.65;27.10;;;;;;;12.11;100.00;101854.50;6152491;23;20333;-87
2022/10/31 09:03:13;;;;;;;55.03;29.30;;;;;;;12.14;100.00;101872.00;6152548;23;20012;-86
2022/10/31 09:05:39;;;;;;;55.90;27.75;;;;;;;12.15;100.00;101854.81;6153269;23;20040;-87
2022/10/31 09:08:06;;;;;;;49.15;27.65;;;;;;;12.18;100.00;101855.16;6152385;23;20010;-86
2022/10/31 09:10:33;;;;;;;46.45;25.67;;;;;;;12.22;100.00;101850.09;6152297;23;20009;-86
2022/10/31 09:13:06;;;;;;;57.27;28.07;;;;;;;12.32;100.00;101849.47;6152115;23;20331;-87
2022/10/31 09:15:31;;;;;;;52.55;25.15;;;;;;;12.42;100.00;101860.34;6151654;23;20248;-87
2022/10/31 09:17:57;;;;;;;53.53;28.35;;;;;;;12.52;100.00;101865.06;6152604;23;20009;-86
2022/10/31 09:20:22;;;;;;;58.87;29.23;;;;;;;12.60;100.00;101877.31;6152116;23;20414;-86
2022/10/31 09:22:47;;;;;;;58.90;28.48;;;;;;;12.76;100.00;101873.81;6152975;23;20001;-86
2022/10/31 09:25:13;;;;;;;67.10;29.27;;;;;;;12.91;100.00;101856.25;6152389;23;20036;-87
2022/10/31 09:27:38;;;;;;;59.20;27.97;;;;;;;13.04;100.00;101853.19;6152636;23;20040;-86
2022/10/31 09:30:04;;;;;;;55.57;27.73;;;;;;;13.14;100.00;101831.81;6125565;23;20110;-87
2022/10/31 09:32:29;;;;;;;53.78;27.10;;;;;;;13.28;100.00;101839.50;6152589;23;20326;-86
2022/10/31 09:34:55;;;;;;;55.20;27.10;;;;;;;13.37;100.00;101837.97;6152702;23;20020;-86
2022/10/31 09:37:20;;;;;;;56.20;27.37;;;;;;;13.46;100.00;101816.81;6152401;23;20009;-86
2022/10/31 09:39:46;;;;;;;52.83;27.05;;;;;;;13.54;100.00;101810.16;6151537;23;20005;-86
2022/10/31 09:42:47;;;;;;;52.33;27.00;;;;;;;13.56;100.00;101800.78;6151886;23;19997;-87
2022/10/31 09:45:18;;;;;;;50.80;25.63;;;;;;;13.55;100.00;101801.03;6127427;23;20020;-86
2022/10/31 09:48:21;;;;;;;47.60;25.63;;;;;;;13.55;100.00;101806.41;6153170;23;20589;-87
2022/10/31 09:50:59;;;;;;;50.60;25.20;;;;;;;13.50;100.00;101809.88;6154676;23;20009;-87
2022/10/31 09:53:36;;;;;;;52.55;26.15;;;;;;;13.50;100.00;101809.06;6154318;23;20036;-86
2022/10/31 09:56:07;;;;;;;54.00;26.63;;;;;;;13.51;100.00;101806.13;6153481;23;20334;-87
2022/10/31 09:58:41;;;;;;;52.20;26.13;;;;;;;13.50;100.00;101809.06;6154604;23;20025;-87
2022/10/31 10:01:30;;;;;;;49.80;25.20;;;;;;;13.46;100.00;101806.06;6153578;23;20001;-86
2022/10/31 10:04:29;;;;;;;59.67;26.42;;;;;;;13.50;100.00;101809.88;6153587;23;20130;-86
2022/10/31 10:06:54;;;;;;;49.88;25.75;;;;;;;13.55;100.00;101804.56;6152826;23;20010;-86
2022/10/31 10:09:24;;;;;;;53.40;26.17;;;;;;;13.64;100.00;101788.75;6152896;23;20013;-87
2022/10/31 10:12:06;;;;;;;51.05;26.05;;;;;;;13.80;100.00;101797.75;6155448;23;20008;-87
2022/10/31 10:14:45;;;;;;;59.33;28.02;;;;;;;14.02;100.00;101784.22;6153938;23;20005;-86
2022/10/31 10:17:26;;;;;;;56.35;27.35;;;;;;;14.18;100.00;101777.03;6155103;23;20009;-86
2022/10/31 10:20:03;;;;;;;50.33;27.10;;;;;;;14.36;100.00;101783.09;6154024;23;20025;-88
2022/10/31 10:22:35;;;;;;;50.57;25.77;;;;;;;14.49;100.00;101774.56;6157017;23;20233;-87
2022/10/31 10:25:15;;;;;;;48.17;24.50;;;;;;;14.65;100.00;101770.03;6158264;23;20076;-86
2022/10/31 10:27:49;;;;;;;44.30;23.83;;;;;;;14.73;100.00;101767.97;6155183;23;19998;-85
2022/10/31 10:30:21;;;;;;;47.22;24.83;;;;;;;14.71;100.00;101760.13;6151476;23;20012;-84
2022/10/31 10:32:49;;;;;;;47.35;24.13;;;;;;;14.73;100.00;101759.88;6153811;23;20002;-86
2022/10/31 10:35:24;;;;;;;46.25;24.25;;;;;;;14.79;100.00;101746.13;6154007;23;20002;-86
2022/10/31 10:38:02;;;;;;;47.53;24.55;;;;;;;14.88;100.00;101745.66;6153158;23;20060;-84
2022/10/31 10:40:29;;;;;;;45.22;23.88;;;;;;;14.93;100.00;101751.03;6151622;23;20473;-84
2022/10/31 10:43:23;;;;;;;53.38;26.02;;;;;;;15.02;100.00;101754.88;6151168;23;20429;-83
2022/10/31 10:49:09;;;;;;;49.80;25.10;;;;;;;15.28;100.00;101765.72;6151909;23;20903;-85
2022/10/31 10:52:07;;;;;;;48.47;25.90;;;;;;;15.32;100.00;101757.91;6150838;23;20013;-84
2022/10/31 10:54:46;;;;;;;48.40;25.20;;;;;;;15.45;100.00;101754.69;6132166;23;20009;-84
2022/10/31 10:57:55;;;;;;;50.83;26.20;;;;;;;15.69;100.00;101754.97;6152166;23;20032;-84
2022/10/31 11:00:24;;;;;;;50.13;25.42;;;;;;;15.83;100.00;101741.72;6133835;23;20010;-84
2022/10/31 11:02:50;;;;;;;48.60;25.58;;;;;;;15.86;100.00;101738.53;6151700;23;20006;-84
2022/10/31 11:05:24;;;;;;;48.28;25.42;;;;;;;15.85;100.00;101733.34;6152042;23;20374;-84
2022/10/31 11:07:50;;;;;;;51.17;25.30;;;;;;;15.87;100.00;101732.03;6151959;23;20013;-86
2022/10/31 11:10:16;;;;;;;50.83;27.00;;;;;;;15.89;100.00;101737.97;6153598;23;20336;-85
2022/10/31 11:12:44;;;;;;;49.22;25.77;;;;;;;15.95;100.00;101733.38;6154465;23;20002;-86
2022/10/31 11:15:24;;;;;;;50.35;25.02;;;;;;;16.09;100.00;101738.22;6153031;23;20084;-85
2022/10/31 11:17:55;;;;;;;51.10;26.67;;;;;;;16.26;100.00;101738.72;6153960;23;20028;-85
2022/10/31 11:20:20;;;;;;;49.00;25.67;;;;;;;16.34;100.00;101730.03;6151298;23;20002;-85
2022/10/31 11:23:00;;;;;;;46.57;24.00;;;;;;;16.48;100.00;101732.19;6153920;23;20005;-85
2022/10/31 11:25:26;;;;;;;45.13;25.05;;;;;;;16.62;100.00;101725.09;6154238;23;20064;-86
2022/10/31 11:28:08;;;;;;;49.22;25.20;;;;;;;16.62;100.00;101699.91;6153140;23;20032;-86
2022/10/31 11:30:49;;;;;;;46.60;23.60;;;;;;;16.63;100.00;101696.13;6153609;23;20017;-86
2022/10/31 11:33:19;;;;;;;40.63;23.07;;;;;;;16.50;100.00;101686.72;6152278;23;20288;-86
2022/10/31 11:35:46;;;;;;;45.58;23.58;;;;;;;16.47;100.00;101677.25;6152292;23;20056;-85
2022/10/31 11:38:18;;;;;;;47.88;24.42;;;;;;;16.54;100.00;101678.88;6153268;23;20345;-85
2022/10/31 11:41:16;;;;;;;42.25;23.52;;;;;;;16.62;100.00;101680.97;6154644;23;20060;-85
2022/10/31 11:44:30;;;;;;;46.40;23.75;;;;;;;16.78;100.00;101669.00;6153670;23;20006;-85
2022/10/31 11:47:02;;;;;;;46.75;22.45;;;;;;;16.91;100.00;101656.72;6087040;23;20016;-86
2022/10/31 11:49:40;;;;;;;44.38;22.25;;;;;;;17.04;100.00;101641.78;6153588;23;20434;-86
2022/10/31 11:52:16;;;;;;;43.38;23.23;;;;;;;17.09;100.00;101643.66;6153050;23;20002;-87
2022/10/31 11:54:48;;;;;;;47.47;23.10;;;;;;;17.14;100.00;101634.69;6152424;23;20088;-86
2022/10/31 11:57:29;;;;;;;47.73;22.33;;;;;;;17.21;100.00;101636.00;6153282;23;20753;-89
2022/10/31 11:59:59;;;;;;;46.22;22.95;;;;;;;17.21;100.00;101632.47;6152684;23;20032;-89
2022/10/31 12:02:25;;;;;;;48.72;23.23;;;;;;;17.23;100.00;101617.56;6154048;23;20060;-89
2022/10/31 12:05:06;;;;;;;44.60;22.50;;;;;;;17.31;100.00;101620.72;6153822;23;20036;-91
2022/10/31 12:38:58;;;;;;;44.67;18.20;;;;;;;17.53;98.33;101545.22;6213714;23;20572;-89
2022/10/31 12:42:07;;;;;;;40.83;18.15;;;;;;;17.70;95.79;101535.81;6213605;23;20524;-89
2022/10/31 12:50:43;;;;;;;40.78;18.00;;;;;;;17.79;92.56;101488.03;6208659;22;20020;-89
2022/10/31 12:54:15;;;;;;;36.70;16.98;;;;;;;17.86;92.97;101498.50;6211675;23;20341;-89
2022/10/31 13:00:56;;;;;;;31.93;15.83;;;;;;;17.70;92.87;101468.88;5975711;24;20249;-88
2022/10/31 13:04:15;;;;;;;32.40;15.20;;;;;;;17.71;91.58;101481.31;6006148;23;20508;-88
2022/10/31 13:07:08;;;;;;;31.58;15.70;;;;;;;17.32;92.82;101440.88;6033622;23;20047;-88
2022/10/31 13:13:17;;;;;;;34.03;15.20;;;;;;;17.31;92.90;101450.09;6033762;23;20086;-90
2022/10/31 13:15:53;;;;;;;29.25;14.13;;;;;;;17.33;92.26;101446.03;6183075;23;20000;-87
2022/10/31 13:18:46;;;;;;;29.63;14.10;;;;;;;17.30;92.11;101422.22;6181256;23;20005;-86
2022/10/31 13:21:56;;;;;;;25.50;12.87;;;;;;;17.44;90.72;101425.03;6182131;23;20005;-86
2022/10/31 13:25:15;;;;;;;27.47;13.97;;;;;;;17.37;91.27;101411.84;6143915;23;20334;-86
2022/10/31 13:27:57;;;;;;;30.02;14.35;;;;;;;17.24;91.72;101390.88;6042354;23;20475;-86
2022/10/31 13:30:26;;;;;;;28.13;13.52;;;;;;;17.30;91.82;101407.88;6181716;23;20016;-86
2022/10/31 13:33:34;;;;;;;30.55;13.80;;;;;;;17.38;92.75;101407.25;6181860;23;20008;-86
2022/10/31 13:36:28;;;;;;;29.95;13.23;;;;;;;17.41;91.44;101402.03;6182082;23;20013;-87
2022/10/31 13:39:19;;;;;;;31.77;13.20;;;;;;;17.39;90.06;101400.72;6177873;23;20015;-85
2022/10/31 13:42:05;;;;;;;31.20;12.07;;;;;;;17.47;89.57;101389.22;6182185;23;20009;-86
2022/10/31 13:44:37;;;;;;;26.60;12.30;;;;;;;17.49;89.63;101383.53;6181656;23;20001;-86
2022/10/31 13:47:40;;;;;;;29.73;11.27;;;;;;;17.63;88.82;101389.03;6181403;23;20325;-88
2022/10/31 13:50:24;;;;;;;33.72;11.80;;;;;;;17.50;87.84;101363.47;6180126;23;20028;-87
2022/10/31 13:52:49;;;;;;;21.83;10.38;;;;;;;17.43;87.57;101366.56;6182878;23;20001;-88
2022/10/31 13:55:46;;;;;;;26.63;10.70;;;;;;;17.44;88.45;101368.13;6182689;23;20080;-88
2022/10/31 13:58:29;;;;;;;23.30;10.37;;;;;;;17.33;87.45;101364.78;6182612;23;20016;-84
2022/10/31 14:03:30;;;;;;;19.27;10.23;;;;;;;16.84;88.61;101339.59;6181558;23;20025;-86
2022/10/31 14:06:07;;;;;;;24.95;11.82;;;;;;;16.80;90.20;101338.56;6181575;23;20009;-87
2022/10/31 14:08:36;;;;;;;25.05;11.10;;;;;;;16.64;90.08;101332.50;6181646;23;20076;-86
2022/10/31 14:11:04;;;;;;;25.45;11.50;;;;;;;16.68;91.07;101343.56;6181208;23;20009;-86
2022/10/31 14:13:41;;;;;;;22.08;11.65;;;;;;;16.67;92.67;101337.34;6182381;23;20024;-86
2022/10/31 14:16:20;;;;;;;21.57;11.93;;;;;;;16.83;92.41;101342.56;6181508;23;20008;-86
2022/10/31 14:18:56;;;;;;;22.43;12.17;;;;;;;16.85;91.56;101340.38;6181875;23;20240;-86
2022/10/31 14:21:24;;;;;;;27.65;12.45;;;;;;;16.79;92.05;101337.75;6181300;23;20158;-86
2022/10/31 14:23:51;;;;;;;23.92;12.68;;;;;;;16.78;91.90;101336.16;6182215;23;20088;-87
2022/10/31 14:26:23;;;;;;;23.20;11.77;;;;;;;16.80;92.11;101327.72;6182159;23;20088;-86
2022/10/31 14:28:50;;;;;;;25.27;12.20;;;;;;;16.74;91.88;101326.97;6185408;23;20720;-85
2022/10/31 14:31:43;;;;;;;27.95;12.57;;;;;;;16.84;92.87;101322.53;6182841;23;20001;-86
2022/10/31 14:34:11;;;;;;;26.50;12.10;;;;;;;16.90;91.05;101322.19;6136874;23;20080;-87
2022/10/31 14:36:45;;;;;;;22.73;12.07;;;;;;;16.80;92.04;101322.31;6181346;23;20005;-87
2022/10/31 14:39:24;;;;;;;31.70;12.77;;;;;;;16.81;91.84;101313.91;6181288;23;20016;-87
2022/10/31 14:42:07;;;;;;;28.00;11.90;;;;;;;16.70;91.67;101315.13;6181608;23;20311;-86
2022/10/31 14:45:02;;;;;;;23.40;11.50;;;;;;;16.55;92.84;101315.28;6182493;23;20036;-86
2022/10/31 14:47:59;;;;;;;23.48;12.25;;;;;;;16.40;94.23;101303.53;6182546;23;20004;-85
2022/10/31 14:50:54;;;;;;;29.25;12.35;;;;;;;16.27;95.04;101298.78;6181514;23;20448;-86
2022/10/31 14:53:24;;;;;;;27.73;12.13;;;;;;;16.15;95.50;101299.97;6182104;23;20023;-86
2022/10/31 14:55:54;;;;;;;23.42;11.35;;;;;;;16.18;96.32;101285.88;6181435;23;20001;-87
2022/10/31 14:58:28;;;;;;;27.85;12.40;;;;;;;16.27;95.81;101290.66;6181834;23;20076;-87
2022/10/31 15:00:56;;;;;;;26.60;12.35;;;;;;;16.32;95.45;101274.41;6180061;23;20486;-85
2022/10/31 15:03:28;;;;;;;25.15;11.68;;;;;;;16.37;95.20;101268.13;6182351;23;20031;-86
2022/10/31 15:05:58;;;;;;;25.97;11.40;;;;;;;16.43;95.58;101262.38;6182030;23;20016;-86
2022/10/31 15:08:47;;;;;;;25.50;11.90;;;;;;;16.48;95.18;101251.50;6182292;23;20240;-87
2022/10/31 15:11:26;;;;;;;24.88;11.00;;;;;;;16.45;95.60;101235.84;6155279;23;20021;-87
2022/10/31 15:14:01;;;;;;;25.55;11.13;;;;;;;16.38;95.48;101237.28;6181830;23;20087;-86
2022/10/31 15:16:32;;;;;;;26.15;12.02;;;;;;;16.20;96.08;101226.94;6182222;23;20008;-87
2022/10/31 15:19:05;;;;;;;27.38;12.05;;;;;;;16.03;96.87;101215.75;6182262;23;20051;-86
2022/10/31 15:21:32;;;;;;;25.13;11.77;;;;;;;15.83;98.14;101206.72;6182689;23;20009;-88
2022/10/31 15:23:59;;;;;;;25.42;12.07;;;;;;;15.74;98.72;101211.09;6182925;23;20009;-87
2022/10/31 15:26:46;;;;;;;26.80;11.70;;;;;;;15.64;99.23;101206.59;6182772;23;20005;-87
2022/10/31 15:29:22;;;;;;;25.85;11.27;;;;;;;15.54;100.00;101212.88;6182775;23;20001;-87
2022/10/31 15:32:01;;;;;;;27.05;11.52;;;;;;;15.40;100.00;101201.09;6180929;23;20009;-86
2022/10/31 15:34:26;;;;;;;21.40;11.30;;;;;;;15.30;100.00;101196.59;6181993;23;20028;-86
2022/10/31 15:36:51;;;;;;;27.30;11.77;;;;;;;15.22;100.00;101195.28;6182062;23;20009;-86
2022/10/31 15:39:17;;;;;;;23.37;11.90;;;;;;;15.14;100.00;101185.09;6181504;23;20005;-87
2022/10/31 15:41:50;;;;;;;26.67;11.50;;;;;;;15.05;100.00;101184.88;6180837;23;20387;-87
2022/10/31 15:44:30;;;;;;;32.72;11.57;;;;;;;14.95;100.00;101185.75;6181817;23;20516;-87
2022/10/31 15:47:03;;;;;;;26.20;11.30;;;;;;;14.90;100.00;101187.66;6181499;23;20008;-87
2022/10/31 15:49:41;;;;;;;23.67;11.63;;;;;;;14.78;100.00;101178.00;6181985;23;20088;-88
2022/10/31 15:52:16;;;;;;;18.77;10.95;;;;;;;14.69;100.00;101182.38;6181473;23;20067;-87
2022/10/31 15:54:50;;;;;;;19.60;11.48;;;;;;;14.57;100.00;101179.97;6182804;23;20032;-87
2022/10/31 15:57:16;;;;;;;26.85;11.30;;;;;;;14.50;100.00;101179.44;6183435;23;20009;-87
2022/10/31 15:59:45;;;;;;;28.50;11.07;;;;;;;14.39;100.00;101179.50;6183714;23;20001;-87
2022/10/31 16:02:12;;;;;;;26.50;11.20;;;;;;;14.30;100.00;101169.56;6185247;23;20441;-86
2022/10/31 16:04:49;;;;;;;26.33;10.77;;;;;;;14.19;100.00;101176.84;6183592;23;20013;-88
2022/10/31 16:07:18;;;;;;;24.38;11.48;;;;;;;14.12;100.00;101176.31;6183234;23;20023;-86
2022/10/31 16:10:03;;;;;;;23.45;10.80;;;;;;;13.99;100.00;101178.50;6183074;23;20338;-87
2022/10/31 16:12:44;;;;;;;26.55;11.05;;;;;;;13.88;100.00;101171.50;6184247;23;20009;-87
2022/10/31 16:15:17;;;;;;;25.25;10.90;;;;;;;13.80;100.00;101161.31;6184366;23;20001;-86
2022/10/31 16:17:46;;;;;;;22.60;10.85;;;;;;;13.71;100.00;101159.13;6183978;23;20491;-87
2022/10/31 16:20:28;;;;;;;18.75;10.75;;;;;;;13.64;100.00;101158.63;6184410;23;20009;-87
2022/10/31 16:22:56;;;;;;;27.80;11.10;;;;;;;13.56;100.00;101154.59;6183655;23;20007;-87
2022/10/31 16:25:33;;;;;;;23.23;10.33;;;;;;;13.48;100.00;101153.25;6184242;23;20240;-87
2022/10/31 16:28:26;;;;;;;30.95;10.18;;;;;;;13.40;100.00;101143.00;6183323;23;20094;-86
2022/10/31 16:30:54;;;;;;;30.08;9.98;;;;;;;13.36;100.00;101141.88;6178141;23;20063;-88
2022/10/31 16:33:33;;;;;;;20.23;9.85;;;;;;;13.36;100.00;101152.66;6196394;23;20065;-86
2022/10/31 16:35:59;;;;;;;18.88;9.85;;;;;;;13.36;100.00;101147.28;6156781;23;20005;-87
2022/10/31 16:38:25;;;;;;;20.95;9.32;;;;;;;13.37;100.00;101142.72;6183308;23;20001;-87
2022/10/31 16:40:51;;;;;;;17.10;9.23;;;;;;;13.42;100.00;101142.75;6183004;23;20016;-85
2022/10/31 16:43:18;;;;;;;23.10;9.70;;;;;;;13.51;100.00;101143.81;6183811;23;20071;-87
2022/10/31 16:45:46;;;;;;;19.15;7.95;;;;;;;13.58;100.00;101143.53;6183241;23;20033;-87
2022/10/31 16:48:20;;;;;;;20.15;8.98;;;;;;;13.59;100.00;101145.97;6181877;23;20005;-88
2022/10/31 16:50:46;;;;;;;24.20;9.07;;;;;;;13.63;100.00;101146.22;6181249;23;20008;-88
2022/10/31 16:53:14;;;;;;;16.63;8.37;;;;;;;13.67;100.00;101144.63;6183173;23;20116;-90
2022/10/31 16:55:51;;;;;;;18.25;7.22;;;;;;;13.74;100.00;101142.44;6183789;23;20012;-90
2022/10/31 16:58:32;;;;;;;14.80;7.28;;;;;;;13.78;100.00;101140.81;6185769;23;20080;-88
2022/10/31 17:00:59;;;;;;;14.18;7.18;;;;;;;13.80;100.00;101134.38;6181439;23;20020;-87
2022/10/31 17:03:25;;;;;;;15.15;6.95;;;;;;;13.84;100.00;101132.75;6182660;23;20134;-88
2022/10/31 17:05:51;;;;;;;18.40;7.23;;;;;;;13.89;100.00;101135.41;6178401;23;20005;-86
2022/10/31 17:08:17;;;;;;;19.67;7.13;;;;;;;13.91;100.00;101125.16;6182066;23;20327;-88
2022/10/31 17:10:44;;;;;;;20.92;7.60;;;;;;;13.94;100.00;101113.84;6183423;23;20680;-87
2022/10/31 17:13:18;;;;;;;18.90;7.07;;;;;;;13.97;100.00;101117.91;6181585;23;20009;-86
2022/10/31 17:15:47;;;;;;;19.43;8.00;;;;;;;14.16;100.00;101115.41;6180898;23;20255;-86
2022/10/31 17:18:14;;;;;;;19.45;7.15;;;;;;;14.14;100.00;101115.69;6182335;23;20013;-87
2022/10/31 17:20:40;;;;;;;16.08;7.95;;;;;;;14.21;100.00;101115.41;6182008;23;20053;-87
2022/10/31 17:23:06;;;;;;;23.75;7.38;;;;;;;14.27;100.00;101116.19;6181537;23;20013;-85
2022/10/31 17:25:31;;;;;;;18.67;6.70;;;;;;;14.20;100.00;101105.72;6182123;23;20012;-85
2022/10/31 17:27:58;;;;;;;19.63;7.75;;;;;;;14.16;100.00;101108.13;6180350;23;20005;-88
2022/10/31 17:30:24;;;;;;;17.20;7.33;;;;;;;14.04;100.00;101108.47;6181613;23;20009;-88
2022/10/31 17:32:51;;;;;;;20.10;7.32;;;;;;;13.89;100.00;101095.81;6181897;23;20032;-86
2022/10/31 17:35:17;;;;;;;21.27;7.07;;;;;;;13.82;100.00;101094.50;6181943;23;20011;-85
2022/10/31 17:37:44;;;;;;;15.85;6.95;;;;;;;13.71;100.00;101088.31;6182880;23;20016;-86
2022/10/31 17:40:17;;;;;;;16.23;7.57;;;;;;;13.67;100.00;101076.47;6181500;23;20084;-87
2022/10/31 17:42:51;;;;;;;16.50;8.10;;;;;;;13.59;100.00;101069.75;6183141;23;20438;-87
2022/10/31 17:45:17;;;;;;;17.25;8.50;;;;;;;13.56;100.00;101071.13;6180840;23;20055;-87
2022/10/31 17:47:48;;;;;;;17.60;8.20;;;;;;;13.48;100.00;101069.78;6181937;23;19997;-86
2022/10/31 17:50:15;;;;;;;18.93;7.50;;;;;;;13.38;100.00;101068.97;6181399;23;20024;-84
2022/10/31 17:52:41;;;;;;;18.53;7.80;;;;;;;13.24;100.00;101057.94;6181127;23;20688;-86
2022/10/31 17:55:06;;;;;;;18.42;7.53;;;;;;;13.17;100.00;101069.75;6155476;23;20020;-86
2022/10/31 17:57:33;;;;;;;19.83;7.67;;;;;;;13.10;100.00;101076.50;6180319;23;20476;-85
2022/10/31 17:59:59;;;;;;;18.55;7.45;;;;;;;13.04;100.00;101078.38;6180725;23;20029;-86
2022/10/31 18:02:24;;;;;;;19.63;7.50;;;;;;;12.98;100.00;101079.44;6181641;23;20005;-87
2022/10/31 18:04:49;;;;;;;23.07;8.47;;;;;;;12.92;100.00;101089.38;6180308;23;20443;-88